createdAt,value
2023-05-17T00:01:32.039Z,74.59
2023-05-17T00:03:36.058Z,74.82
2023-05-17T00:05:40.229Z,75.41
2023-05-17T00:07:43.800Z,75.56
2023-05-17T00:09:49.043Z,75.76
2023-05-17T00:11:52.894Z,75.50
2023-05-17T00:13:56.973Z,75.87
2023-05-17T00:16:00.857Z,75.81
2023-05-17T00:18:04.969Z,75.87
2023-05-17T00:20:09.795Z,76.14
2023-05-17T00:22:13.510Z,75.82
2023-05-17T00:24:17.385Z,75.60
2023-05-17T00:26:22.800Z,75.45
2023-05-17T00:28:26.594Z,75.62
2023-05-17T00:30:30.304Z,75.92
2023-05-17T00:32:34.023Z,75.82
2023-05-17T00:34:37.864Z,75.96
2023-05-17T00:36:41.423Z,76.23
2023-05-17T00:38:45.896Z,76.92
2023-05-17T00:40:51.112Z,76.80
2023-05-17T00:42:56.421Z,77.11
2023-05-17T00:44:59.985Z,77.29
2023-05-17T00:47:03.836Z,77.12
2023-05-17T00:49:07.562Z,77.30
2023-05-17T00:51:11.786Z,77.35
2023-05-17T00:53:16.643Z,78.12
2023-05-17T00:55:20.892Z,78.23
2023-05-17T00:57:24.650Z,78.06
2023-05-17T00:59:31.165Z,77.90
2023-05-17T01:01:36.665Z,78.66
2023-05-17T01:03:40.800Z,78.57
2023-05-17T01:05:44.845Z,77.88
2023-05-17T01:07:48.678Z,78.74
2023-05-17T01:09:53.202Z,78.48
2023-05-17T01:12:17.294Z,78.64
2023-05-17T01:14:36.632Z,78.94
2023-05-17T01:16:45.884Z,79.79
2023-05-17T01:18:58.011Z,79.33
2023-05-17T01:21:03.339Z,78.86
2023-05-17T01:23:29.492Z,78.68
2023-05-17T01:25:47.870Z,79.06
2023-05-17T01:27:55.830Z,78.85
2023-05-17T01:30:00.585Z,79.24
2023-05-17T01:32:04.995Z,79.60
2023-05-17T01:34:09.496Z,79.61
2023-05-17T01:36:13.306Z,79.50
2023-05-17T01:38:18.381Z,79.23
2023-05-17T01:40:22.963Z,79.48
2023-05-17T01:42:32.514Z,79.99
2023-05-17T01:44:44.869Z,79.71
2023-05-17T01:46:50.132Z,79.61
2023-05-17T01:49:02.154Z,79.87
2023-05-17T01:51:06.951Z,80.29
2023-05-17T01:53:13.513Z,79.63
2023-05-17T01:55:22.698Z,79.56
2023-05-17T01:57:31.003Z,79.64
2023-05-17T01:59:36.541Z,80.06
2023-05-17T02:01:43.281Z,80.34
2023-05-17T02:03:49.737Z,80.24
2023-05-17T02:05:53.975Z,80.20
2023-05-17T02:07:58.013Z,80.42
2023-05-17T02:10:01.936Z,80.58
2023-05-17T02:12:06.283Z,80.67
2023-05-17T02:14:11.201Z,81.22
2023-05-17T02:16:14.747Z,81.09
2023-05-17T02:18:22.270Z,81.83
2023-05-17T02:20:26.517Z,81.74
2023-05-17T02:22:30.099Z,81.59
2023-05-17T02:24:34.733Z,81.95
2023-05-17T02:26:38.545Z,82.27
2023-05-17T02:28:42.228Z,82.27
2023-05-17T02:30:46.469Z,81.76
2023-05-17T02:32:50.451Z,81.60
2023-05-17T02:34:55.660Z,81.60
2023-05-17T02:37:00.296Z,81.75
2023-05-17T02:39:03.989Z,81.54
2023-05-17T02:41:08.674Z,81.35
2023-05-17T02:43:12.328Z,81.62
2023-05-17T02:45:15.990Z,81.51
2023-05-17T02:47:21.365Z,82.20
2023-05-17T02:49:25.439Z,81.97
2023-05-17T02:51:31.487Z,81.40
2023-05-17T02:53:35.258Z,82.38
2023-05-17T02:55:39.536Z,82.28
2023-05-17T02:57:43.548Z,82.73
2023-05-17T02:59:48.026Z,82.62
2023-05-17T03:01:52.057Z,81.86
2023-05-17T03:03:56.415Z,82.01
2023-05-17T03:06:02.982Z,83.21
2023-05-17T03:08:08.375Z,82.31
2023-05-17T03:10:12.168Z,82.54
2023-05-17T03:12:19.817Z,83.13
2023-05-17T03:14:23.834Z,83.08
2023-05-17T03:16:27.253Z,82.97
2023-05-17T03:18:31.047Z,83.45
2023-05-17T03:20:34.933Z,83.31
2023-05-17T03:22:38.367Z,83.65
2023-05-17T03:24:43.330Z,83.69
2023-05-17T03:26:46.596Z,83.96
2023-05-17T03:28:50.437Z,83.67
2023-05-17T03:30:55.664Z,82.79
2023-05-17T03:32:59.325Z,82.76
2023-05-17T03:35:02.820Z,82.95
2023-05-17T03:37:06.803Z,83.17
2023-05-17T03:39:10.371Z,83.18
2023-05-17T03:41:17.541Z,82.82
2023-05-17T03:43:21.445Z,83.21
2023-05-17T03:45:25.748Z,83.15
2023-05-17T03:47:29.272Z,83.57
2023-05-17T03:49:32.830Z,83.38
2023-05-17T03:51:36.370Z,83.84
2023-05-17T03:53:43.480Z,84.35
2023-05-17T03:55:47.301Z,84.64
2023-05-17T03:57:53.381Z,84.52
2023-05-17T03:59:56.894Z,84.57
2023-05-17T04:02:00.283Z,84.56
2023-05-17T04:04:04.611Z,84.24
2023-05-17T04:06:10.358Z,84.28
2023-05-17T04:08:15.324Z,83.83
2023-05-17T04:10:18.728Z,83.91
2023-05-17T04:12:22.615Z,83.90
2023-05-17T04:14:27.416Z,84.16
2023-05-17T04:16:32.350Z,84.30
2023-05-17T04:18:37.316Z,84.79
2023-05-17T04:20:40.970Z,84.67
2023-05-17T04:22:44.383Z,84.21
2023-05-17T04:24:48.540Z,84.83
2023-05-17T04:26:52.027Z,84.01
2023-05-17T04:29:00.099Z,84.75
2023-05-17T04:31:08.432Z,84.48
2023-05-17T04:33:14.087Z,84.51
2023-05-17T04:35:17.860Z,84.65
2023-05-17T04:37:24.360Z,85.00
2023-05-17T04:39:31.420Z,84.62
2023-05-17T04:41:35.130Z,84.64
2023-05-17T04:43:42.158Z,84.85
2023-05-17T04:45:57.954Z,84.84
2023-05-17T04:48:03.047Z,84.98
2023-05-17T04:50:07.861Z,85.26
2023-05-17T04:52:12.594Z,85.12
2023-05-17T04:54:16.070Z,84.96
2023-05-17T04:56:20.124Z,84.76
2023-05-17T04:58:24.367Z,84.65
2023-05-17T05:00:31.539Z,85.46
2023-05-17T05:02:40.374Z,84.38
2023-05-17T05:04:45.885Z,84.96
2023-05-17T05:06:50.263Z,84.80
2023-05-17T05:08:54.563Z,85.13
2023-05-17T05:10:58.313Z,84.98
2023-05-17T05:13:02.282Z,85.18
2023-05-17T05:15:06.611Z,84.96
2023-05-17T05:17:12.114Z,85.15
2023-05-17T05:19:17.259Z,84.56
2023-05-17T05:21:23.103Z,85.02
2023-05-17T05:23:26.715Z,84.76
2023-05-17T05:25:30.832Z,83.98
2023-05-17T05:27:35.689Z,84.87
2023-05-17T05:29:39.076Z,84.41
2023-05-17T05:31:43.196Z,83.90
2023-05-17T05:33:47.581Z,84.54
2023-05-17T05:35:51.134Z,84.56
2023-05-17T05:37:56.098Z,84.26
2023-05-17T05:40:00.133Z,83.97
2023-05-17T05:42:03.567Z,83.70
2023-05-17T05:44:07.578Z,83.76
2023-05-17T05:46:12.007Z,83.53
2023-05-17T05:48:17.022Z,83.41
2023-05-17T05:50:20.860Z,82.88
2023-05-17T05:52:25.600Z,82.00
2023-05-17T05:54:30.438Z,81.53
2023-05-17T05:56:34.908Z,80.93
2023-05-17T05:58:38.642Z,80.10
2023-05-17T06:00:43.318Z,79.86
2023-05-17T06:02:47.142Z,79.54
2023-05-17T06:04:50.690Z,78.81
2023-05-17T06:06:56.318Z,78.25
2023-05-17T06:08:59.875Z,76.95
2023-05-17T06:11:04.772Z,75.20
2023-05-17T06:13:08.186Z,74.23
2023-05-17T06:15:12.373Z,73.03
2023-05-17T06:17:15.857Z,72.50
2023-05-17T06:19:20.627Z,71.27
2023-05-17T06:21:23.874Z,69.57
2023-05-17T06:23:27.293Z,69.31
2023-05-17T06:25:30.738Z,67.48
2023-05-17T06:27:35.675Z,64.78
2023-05-17T06:29:39.168Z,60.79
2023-05-17T06:31:42.510Z,58.36
2023-05-17T06:33:45.946Z,55.78
2023-05-17T06:37:57.931Z,53.99
2023-05-17T06:40:14.697Z,53.04
2023-05-17T06:42:19.611Z,52.57
2023-05-17T06:44:25.178Z,51.45
2023-05-17T06:46:28.611Z,51.07
2023-05-17T06:48:32.235Z,49.96
2023-05-17T06:50:36.320Z,49.07
2023-05-17T06:52:39.817Z,48.19
2023-05-17T06:54:43.134Z,47.42
2023-05-17T06:56:46.511Z,47.02
2023-05-17T06:58:50.106Z,46.92
2023-05-17T07:00:54.964Z,46.86
2023-05-17T07:02:58.239Z,45.86
2023-05-17T07:05:01.717Z,45.52
2023-05-17T07:07:05.457Z,46.27
2023-05-17T07:09:09.472Z,46.31
2023-05-17T07:11:13.388Z,45.55
2023-05-17T07:13:18.300Z,45.42
2023-05-17T07:15:22.449Z,44.90
2023-05-17T07:17:28.514Z,44.76
2023-05-17T07:19:33.484Z,45.17
2023-05-17T07:21:38.285Z,44.92
2023-05-17T07:23:43.633Z,45.13
2023-05-17T07:25:47.771Z,44.68
2023-05-17T07:27:52.388Z,44.30
2023-05-17T07:29:56.399Z,43.93
2023-05-17T07:32:00.070Z,43.72
2023-05-17T07:34:05.277Z,43.23
2023-05-17T07:36:09.613Z,43.19
2023-05-17T07:38:13.815Z,43.21
2023-05-17T07:40:24.144Z,42.94
2023-05-17T07:42:28.093Z,43.10
2023-05-17T07:44:31.605Z,43.29
2023-05-17T07:46:35.630Z,42.98
2023-05-17T07:48:39.483Z,43.06
2023-05-17T07:50:47.287Z,42.54
2023-05-17T07:52:53.611Z,42.88
2023-05-17T07:54:57.434Z,42.63
2023-05-17T07:57:01.323Z,42.42
2023-05-17T07:59:06.111Z,41.66
2023-05-17T08:01:10.498Z,41.46
2023-05-17T08:03:17.087Z,41.85
2023-05-17T08:05:21.219Z,41.80
2023-05-17T08:07:30.451Z,41.80
2023-05-17T08:09:34.318Z,42.26
2023-05-17T08:11:42.097Z,42.91
2023-05-17T08:13:46.000Z,43.61
2023-05-17T08:15:51.559Z,43.31
2023-05-17T08:17:55.875Z,43.92
2023-05-17T08:19:59.913Z,44.31
2023-05-17T08:22:03.887Z,44.79
2023-05-17T08:24:09.547Z,45.60
2023-05-17T08:26:14.115Z,46.37
2023-05-17T08:28:18.248Z,46.97
2023-05-17T08:32:32.309Z,48.22
2023-05-17T08:34:36.960Z,48.56
2023-05-17T08:36:43.484Z,48.82
2023-05-17T08:38:47.239Z,49.42
2023-05-17T08:40:56.362Z,49.71
2023-05-17T08:43:00.665Z,50.12
2023-05-17T08:45:04.419Z,50.77
2023-05-17T08:47:12.369Z,50.83
2023-05-17T08:49:16.982Z,51.63
2023-05-17T08:51:21.439Z,51.71
2023-05-17T08:53:26.809Z,51.87
2023-05-17T08:55:33.336Z,51.84
2023-05-17T08:57:40.647Z,52.52
2023-05-17T08:59:45.469Z,51.67
2023-05-17T09:01:51.203Z,50.89
2023-05-17T09:03:55.234Z,51.19
2023-05-17T09:06:00.365Z,49.93
2023-05-17T09:08:04.220Z,49.64
2023-05-17T09:10:09.046Z,49.77
2023-05-17T09:12:13.319Z,49.51
2023-05-17T09:14:18.826Z,49.43
2023-05-17T09:16:22.745Z,49.25
2023-05-17T09:18:33.251Z,48.62
2023-05-17T09:20:39.174Z,48.07
2023-05-17T09:22:42.863Z,47.73
2023-05-17T09:24:47.097Z,47.25
2023-05-17T09:26:50.905Z,47.09
2023-05-17T09:28:54.758Z,47.31
2023-05-17T09:31:06.954Z,47.18
2023-05-17T09:33:13.966Z,47.38
2023-05-17T09:35:20.732Z,47.67
2023-05-17T09:37:26.293Z,47.23
2023-05-17T09:39:29.985Z,47.08
2023-05-17T09:41:34.298Z,47.45
2023-05-17T09:43:38.632Z,47.53
2023-05-17T09:45:42.310Z,47.36
2023-05-17T09:47:48.438Z,47.74
2023-05-17T09:49:52.622Z,47.80
2023-05-17T09:51:57.304Z,47.44
2023-05-17T09:54:01.437Z,47.00
2023-05-17T09:56:07.960Z,46.57
2023-05-17T09:58:11.946Z,46.95
2023-05-17T10:00:19.914Z,46.74
2023-05-17T10:02:28.066Z,46.92
2023-05-17T10:04:38.038Z,47.16
2023-05-17T10:06:51.464Z,46.77
2023-05-17T10:08:59.542Z,46.99
2023-05-17T10:11:09.142Z,46.90
2023-05-17T10:13:15.785Z,46.67
2023-05-17T10:15:20.048Z,46.74
2023-05-17T10:17:24.927Z,46.81
2023-05-17T10:19:29.323Z,46.68
2023-05-17T10:21:35.039Z,46.66
2023-05-17T10:23:40.711Z,46.53
2023-05-17T10:25:45.131Z,46.37
2023-05-17T10:27:50.352Z,46.94
2023-05-17T10:29:55.531Z,47.08
2023-05-17T10:32:00.499Z,46.72
2023-05-17T10:34:06.045Z,46.35
2023-05-17T10:36:11.344Z,46.59
2023-05-17T10:38:16.813Z,46.89
2023-05-17T10:40:23.023Z,47.68
2023-05-17T10:42:29.573Z,48.34
2023-05-17T10:44:35.099Z,48.67
2023-05-17T10:46:38.747Z,48.93
2023-05-17T10:48:42.945Z,49.27
2023-05-17T10:51:00.658Z,49.55
2023-05-17T10:53:10.823Z,48.89
2023-05-17T10:55:19.644Z,48.49
2023-05-17T10:57:46.808Z,48.39
2023-05-17T11:00:01.874Z,47.69
2023-05-17T11:02:07.580Z,47.87
2023-05-17T11:04:23.152Z,48.20
2023-05-17T11:06:27.017Z,47.78
2023-05-17T11:08:32.839Z,47.66
2023-05-17T11:10:40.140Z,47.45
2023-05-17T11:12:46.189Z,47.27
2023-05-17T11:14:53.718Z,47.29
2023-05-17T11:16:58.737Z,47.58
2023-05-17T11:19:10.455Z,47.31
2023-05-17T11:21:16.496Z,47.05
2023-05-17T11:23:22.948Z,46.02
2023-05-17T11:25:30.013Z,46.27
2023-05-17T11:27:39.506Z,46.14
2023-05-17T11:29:44.028Z,45.71
2023-05-17T11:31:52.812Z,44.87
2023-05-17T11:33:57.113Z,44.10
2023-05-17T11:36:07.074Z,43.50
2023-05-17T11:38:19.500Z,43.21
2023-05-17T11:40:28.378Z,43.78
2023-05-17T11:42:32.998Z,44.27
2023-05-17T11:44:39.975Z,45.27
2023-05-17T11:46:44.802Z,46.25
2023-05-17T11:48:48.558Z,46.81
2023-05-17T11:50:54.288Z,47.09
2023-05-17T11:53:00.426Z,48.44
2023-05-17T11:55:06.755Z,48.67
2023-05-17T11:57:11.172Z,49.00
2023-05-17T11:59:21.233Z,49.32
2023-05-17T12:01:26.399Z,49.05
2023-05-17T12:03:31.871Z,49.24
2023-05-17T12:05:35.734Z,49.49
2023-05-17T12:07:39.921Z,49.49
2023-05-17T12:09:48.008Z,49.56
2023-05-17T12:11:51.773Z,50.08
2023-05-17T12:13:56.022Z,50.44
2023-05-17T12:16:02.645Z,50.13
2023-05-17T12:18:08.044Z,50.30
2023-05-17T12:20:12.838Z,50.18
2023-05-17T12:22:16.174Z,49.22
2023-05-17T12:24:19.759Z,48.83
2023-05-17T12:26:25.533Z,48.64
2023-05-17T12:28:29.376Z,48.73
2023-05-17T12:30:33.145Z,48.81
2023-05-17T12:32:36.978Z,48.89
2023-05-17T12:34:42.491Z,48.04
2023-05-17T12:36:47.184Z,48.47
2023-05-17T12:38:51.036Z,49.03
2023-05-17T12:40:55.640Z,49.01
2023-05-17T12:43:05.194Z,49.09
2023-05-17T12:45:13.276Z,49.84
2023-05-17T12:47:18.127Z,50.42
2023-05-17T12:49:23.572Z,50.92
2023-05-17T12:51:29.123Z,50.58
2023-05-17T12:53:37.893Z,50.35
2023-05-17T12:55:42.180Z,50.26
2023-05-17T12:57:52.357Z,50.36
2023-05-17T12:59:56.487Z,50.31
2023-05-17T13:02:01.397Z,50.14
2023-05-17T13:04:05.738Z,47.79
2023-05-17T13:06:11.568Z,47.40
2023-05-17T13:08:22.886Z,46.92
2023-05-17T13:10:28.672Z,47.18
2023-05-17T13:12:32.895Z,47.64
2023-05-17T13:14:45.307Z,48.18
2023-05-17T13:16:50.146Z,48.58
2023-05-17T13:18:55.917Z,48.97
2023-05-17T13:20:59.784Z,48.59
2023-05-17T13:23:03.898Z,48.59
2023-05-17T13:25:09.827Z,48.20
2023-05-17T13:27:14.056Z,48.88
2023-05-17T13:29:20.706Z,48.55
2023-05-17T13:31:29.170Z,48.25
2023-05-17T13:33:32.979Z,48.31
2023-05-17T13:35:37.854Z,48.38
2023-05-17T13:37:41.467Z,47.68
2023-05-17T13:39:45.389Z,47.91
2023-05-17T13:41:50.594Z,47.76
2023-05-17T13:43:54.386Z,46.96
2023-05-17T13:45:59.243Z,46.58
2023-05-17T13:48:03.079Z,46.27
2023-05-17T13:50:08.663Z,45.86
2023-05-17T13:52:13.636Z,46.39
2023-05-17T13:54:17.627Z,46.79
2023-05-17T13:56:22.473Z,47.14
2023-05-17T13:58:27.696Z,46.93
2023-05-17T14:00:31.493Z,46.88
2023-05-17T14:02:35.496Z,46.52
2023-05-17T14:04:39.717Z,46.61
2023-05-17T14:06:43.737Z,46.70
2023-05-17T14:08:47.754Z,46.63
2023-05-17T14:10:51.694Z,46.69
2023-05-17T14:12:55.186Z,47.00
2023-05-17T14:15:00.626Z,47.21
2023-05-17T14:17:05.656Z,46.94
2023-05-17T14:19:11.336Z,46.47
2023-05-17T14:21:16.764Z,46.53
2023-05-17T14:23:21.616Z,46.42
2023-05-17T14:25:27.499Z,46.59
2023-05-17T14:27:32.604Z,46.80
2023-05-17T14:29:38.915Z,46.34
2023-05-17T14:31:47.090Z,46.34
2023-05-17T14:33:52.927Z,45.46
2023-05-17T14:35:59.113Z,45.77
2023-05-17T14:38:04.588Z,45.81
2023-05-17T14:40:10.552Z,45.87
2023-05-17T14:42:15.983Z,45.83
2023-05-17T14:44:24.137Z,46.19
2023-05-17T14:46:29.592Z,46.24
2023-05-17T14:48:37.413Z,46.17
2023-05-17T14:50:43.840Z,46.52
2023-05-17T14:52:49.738Z,46.39
2023-05-17T14:54:55.973Z,46.27
2023-05-17T14:57:00.989Z,46.64
2023-05-17T14:59:06.509Z,46.82
2023-05-17T15:01:18.499Z,46.70
2023-05-17T15:03:23.595Z,46.57
2023-05-17T15:05:31.576Z,46.75
2023-05-17T15:07:36.558Z,46.67
2023-05-17T15:09:41.944Z,46.70
2023-05-17T15:11:46.289Z,46.68
2023-05-17T15:13:50.943Z,46.38
2023-05-17T15:15:55.797Z,46.03
2023-05-17T15:18:01.459Z,45.48
2023-05-17T15:20:07.139Z,45.27
2023-05-17T15:22:14.360Z,45.50
2023-05-17T15:24:18.611Z,45.54
2023-05-17T15:26:25.365Z,45.25
2023-05-17T15:28:30.222Z,45.01
2023-05-17T15:30:34.807Z,44.68
2023-05-17T15:32:38.907Z,44.58
2023-05-17T15:34:42.697Z,44.53
2023-05-17T15:36:49.370Z,44.53
2023-05-17T15:38:55.724Z,44.27
2023-05-17T15:41:05.247Z,42.81
2023-05-17T15:43:09.137Z,42.86
2023-05-17T15:45:13.217Z,42.90
2023-05-17T15:47:16.927Z,42.98
2023-05-17T15:49:21.040Z,42.85
2023-05-17T15:51:25.090Z,42.87
2023-05-17T15:53:30.623Z,43.16
2023-05-17T15:55:36.171Z,43.08
2023-05-17T15:57:40.321Z,42.92
2023-05-17T15:59:44.603Z,42.72
2023-05-17T16:01:48.575Z,42.34
2023-05-17T16:03:52.791Z,42.58
2023-05-17T16:05:57.048Z,42.30
2023-05-17T16:08:01.759Z,42.15
2023-05-17T16:10:06.757Z,41.89
2023-05-17T16:12:12.905Z,42.10
2023-05-17T16:14:18.308Z,41.31
2023-05-17T16:16:22.421Z,40.62
2023-05-17T16:18:27.220Z,40.71
2023-05-17T16:20:31.637Z,40.71
2023-05-17T16:22:36.332Z,41.25
2023-05-17T16:24:40.765Z,41.18
2023-05-17T16:26:47.078Z,41.56
2023-05-17T16:28:52.679Z,41.98
2023-05-17T16:30:57.133Z,42.25
2023-05-17T16:33:04.977Z,42.45
2023-05-17T16:35:12.650Z,42.45
2023-05-17T16:37:17.682Z,42.38
2023-05-17T16:39:22.039Z,42.17
2023-05-17T16:41:29.133Z,42.21
2023-05-17T16:43:33.018Z,41.95
2023-05-17T16:45:39.365Z,41.96
2023-05-17T16:47:43.829Z,41.87
2023-05-17T16:49:47.855Z,41.79
2023-05-17T16:51:52.484Z,41.92
2023-05-17T16:53:56.282Z,41.94
2023-05-17T16:56:00.365Z,41.95
2023-05-17T16:58:05.189Z,41.91
2023-05-17T17:00:11.973Z,41.74
2023-05-17T17:02:18.234Z,42.16
2023-05-17T17:04:25.268Z,42.25
2023-05-17T17:06:30.375Z,42.31
2023-05-17T17:08:33.937Z,42.43
2023-05-17T17:10:38.836Z,42.26
2023-05-17T17:12:43.313Z,42.11
2023-05-17T17:14:47.469Z,42.07
2023-05-17T17:16:51.546Z,41.70
2023-05-17T17:18:57.496Z,41.62
2023-05-17T17:21:04.793Z,42.20
2023-05-17T17:23:10.608Z,41.76
2023-05-17T17:25:14.860Z,42.09
2023-05-17T17:27:19.947Z,42.19
2023-05-17T17:29:26.536Z,42.41
2023-05-17T17:31:30.698Z,42.09
2023-05-17T17:33:35.124Z,41.98
2023-05-17T17:35:42.074Z,42.27
2023-05-17T17:37:45.912Z,41.71
2023-05-17T17:39:49.877Z,42.13
2023-05-17T17:41:53.896Z,42.35
2023-05-17T17:43:57.855Z,42.32
2023-05-17T17:46:02.337Z,42.44
2023-05-17T17:48:05.967Z,42.46
2023-05-17T17:50:11.012Z,42.43
2023-05-17T17:52:15.764Z,42.71
2023-05-17T17:54:19.454Z,42.81
2023-05-17T17:56:25.617Z,42.89
2023-05-17T17:58:31.297Z,43.18
2023-05-17T18:00:35.117Z,43.41
2023-05-17T18:02:39.333Z,43.33
2023-05-17T18:04:43.186Z,43.37
2023-05-17T18:06:48.119Z,43.71
2023-05-17T18:08:54.197Z,43.72
2023-05-17T18:10:59.336Z,43.70
2023-05-17T18:13:03.740Z,44.27
2023-05-17T18:15:08.641Z,44.29
2023-05-17T18:17:12.485Z,44.38
2023-05-17T18:19:16.417Z,44.83
2023-05-17T18:21:20.491Z,44.59
2023-05-17T18:23:24.589Z,45.36
2023-05-17T18:25:30.573Z,45.57
2023-05-17T18:27:35.405Z,45.86
2023-05-17T18:29:38.735Z,46.15
2023-05-17T18:31:42.721Z,45.81
2023-05-17T18:33:47.108Z,46.06
2023-05-17T18:35:52.069Z,45.64
2023-05-17T18:37:55.743Z,45.59
2023-05-17T18:40:02.284Z,45.13
2023-05-17T18:42:08.210Z,45.16
2023-05-17T18:44:14.392Z,45.22
2023-05-17T18:46:19.237Z,45.33
2023-05-17T18:48:23.712Z,45.18
2023-05-17T18:50:28.690Z,45.23
2023-05-17T18:52:33.666Z,45.15
2023-05-17T18:54:40.935Z,45.29
2023-05-17T18:56:45.293Z,45.59
2023-05-17T18:58:52.323Z,45.32
2023-05-17T19:00:56.607Z,45.75
2023-05-17T19:03:00.378Z,45.85
2023-05-17T19:05:06.039Z,46.06
2023-05-17T19:07:10.185Z,46.03
2023-05-17T19:09:13.985Z,46.07
2023-05-17T19:11:18.066Z,45.94
2023-05-17T19:13:22.109Z,46.15
2023-05-17T19:15:27.841Z,46.19
2023-05-17T19:17:32.736Z,46.34
2023-05-17T19:19:37.288Z,46.57
2023-05-17T19:21:41.103Z,46.46
2023-05-17T19:23:45.983Z,46.80
2023-05-17T19:25:50.105Z,47.31
2023-05-17T19:27:54.320Z,47.31
2023-05-17T19:29:58.445Z,47.62
2023-05-17T19:32:05.080Z,48.41
2023-05-17T19:34:09.146Z,49.15
2023-05-17T19:36:13.512Z,50.17
2023-05-17T19:38:20.633Z,50.92
2023-05-17T19:40:24.588Z,52.00
2023-05-17T19:42:31.884Z,53.70
2023-05-17T19:44:39.570Z,54.18
2023-05-17T19:46:43.482Z,55.78
2023-05-17T19:49:10.277Z,56.43
2023-05-17T19:51:14.726Z,56.92
2023-05-17T19:53:19.103Z,58.05
2023-05-17T19:55:26.518Z,58.36
2023-05-17T19:57:31.070Z,58.98
2023-05-17T19:59:34.884Z,59.57
2023-05-17T20:01:38.752Z,59.91
2023-05-17T20:03:43.006Z,60.02
2023-05-17T20:05:48.587Z,60.13
2023-05-17T20:07:52.372Z,60.49
2023-05-17T20:09:57.604Z,60.48
2023-05-17T20:12:03.337Z,60.61
2023-05-17T20:14:07.702Z,60.84
2023-05-17T20:16:13.770Z,60.82
2023-05-17T20:18:18.127Z,61.04
2023-05-17T20:20:22.835Z,61.34
2023-05-17T20:22:28.320Z,61.68
2023-05-17T20:24:34.991Z,61.76
2023-05-17T20:26:39.826Z,62.01
2023-05-17T20:28:43.722Z,62.49
2023-05-17T20:30:48.719Z,62.13
2023-05-17T20:32:52.708Z,62.20
2023-05-17T20:34:58.238Z,62.20
2023-05-17T20:37:05.150Z,62.59
2023-05-17T20:39:15.420Z,62.52
2023-05-17T20:41:19.693Z,62.83
2023-05-17T20:43:29.035Z,62.83
2023-05-17T20:45:34.454Z,62.91
2023-05-17T20:47:39.104Z,63.13
2023-05-17T20:49:44.686Z,63.19
2023-05-17T20:51:54.713Z,63.18
2023-05-17T20:54:00.563Z,63.05
2023-05-17T20:56:14.414Z,63.03
2023-05-17T20:58:19.524Z,62.95
2023-05-17T21:00:26.475Z,63.03
2023-05-17T21:02:31.222Z,63.27
2023-05-17T21:04:37.576Z,63.30
2023-05-17T21:06:44.908Z,63.11
2023-05-17T21:08:48.900Z,63.28
2023-05-17T21:10:53.734Z,63.36
2023-05-17T21:13:02.352Z,62.94
2023-05-17T21:15:15.943Z,63.16
2023-05-17T21:17:21.391Z,63.12
2023-05-17T21:19:26.174Z,62.88
2023-05-17T21:21:31.294Z,63.03
2023-05-17T21:23:35.780Z,63.25
2023-05-17T21:25:40.998Z,63.08
2023-05-17T21:27:45.935Z,63.45
2023-05-17T21:29:51.767Z,63.32
2023-05-17T21:31:56.352Z,63.01
2023-05-17T21:36:07.857Z,63.04
2023-05-17T21:38:13.926Z,63.36
2023-05-17T21:40:18.624Z,63.42
2023-05-17T21:42:24.414Z,63.10
2023-05-17T21:44:29.869Z,63.02
2023-05-17T21:46:35.896Z,62.85
2023-05-17T21:48:40.644Z,62.81
2023-05-17T21:50:45.600Z,62.92
2023-05-17T21:52:51.053Z,63.07
2023-05-17T21:54:55.455Z,62.85
2023-05-17T21:57:00.366Z,62.53
2023-05-17T21:59:05.225Z,62.02
2023-05-17T22:01:10.142Z,61.77
2023-05-17T22:03:16.537Z,61.78
2023-05-17T22:05:21.160Z,61.29
2023-05-17T22:07:25.734Z,60.70
2023-05-17T22:09:30.525Z,60.60
2023-05-17T22:11:38.636Z,60.06
2023-05-17T22:13:43.784Z,59.73
2023-05-17T22:15:48.933Z,59.91
2023-05-17T22:17:54.739Z,59.85
2023-05-17T22:20:04.628Z,60.05
2023-05-17T22:22:09.551Z,59.93
2023-05-17T22:24:20.404Z,59.85
2023-05-17T22:26:25.237Z,59.63
2023-05-17T22:28:29.394Z,59.88
2023-05-17T22:30:34.727Z,59.71
2023-05-17T22:32:40.500Z,59.86
2023-05-17T22:34:45.610Z,59.54
2023-05-17T22:36:52.637Z,59.83
2023-05-17T22:38:58.151Z,59.60
2023-05-17T22:41:02.651Z,59.17
2023-05-17T22:43:09.241Z,59.48
2023-05-17T22:45:14.691Z,59.56
2023-05-17T22:47:23.356Z,59.40
2023-05-17T22:49:27.817Z,59.56
2023-05-17T22:51:35.420Z,59.75
2023-05-17T22:53:41.787Z,59.88
2023-05-17T22:55:49.267Z,60.38
2023-05-17T22:57:54.245Z,60.27
2023-05-17T22:59:58.684Z,60.69
2023-05-17T23:02:04.052Z,60.72
2023-05-17T23:04:08.936Z,60.78
2023-05-17T23:06:13.400Z,61.49
2023-05-17T23:08:17.624Z,61.25
2023-05-17T23:10:23.974Z,61.64
2023-05-17T23:12:28.652Z,61.55
2023-05-17T23:14:33.318Z,61.76
2023-05-17T23:16:38.261Z,61.72
2023-05-17T23:18:42.194Z,62.23
2023-05-17T23:20:49.193Z,61.95
2023-05-17T23:22:54.319Z,62.39
2023-05-17T23:24:59.688Z,62.44
2023-05-17T23:27:10.381Z,62.88
2023-05-17T23:29:15.705Z,62.66
2023-05-17T23:31:22.289Z,62.94
2023-05-17T23:33:31.467Z,63.17
2023-05-17T23:35:36.216Z,63.21
2023-05-17T23:37:40.617Z,63.08
2023-05-17T23:39:44.869Z,63.25
2023-05-17T23:41:49.189Z,63.11
2023-05-17T23:43:54.668Z,62.29
2023-05-17T23:45:59.473Z,61.93
2023-05-17T23:48:04.239Z,61.53
2023-05-17T23:50:09.977Z,61.52
2023-05-17T23:52:15.802Z,61.56
2023-05-17T23:54:20.316Z,61.35
2023-05-17T23:56:26.926Z,61.13
2023-05-17T23:58:31.749Z,61.28
